Time;durP1;ratioP1;P1;durP2;ratioP2;P2;SDS_P1;SDS_P2;PMS_P1;PMS_P2;Temp;Humidity;BMP_temperature;BMP_pressure;BME280_temperature;BME280_humidity;BME280_pressure;Samples;Min_cycle;Max_cycle;Signal;HPM_P1;HPM_P2
2022/01/01 09:30:24;;;;;;;40.85;16.40;;;;;;;3.27;100.00;96286.63;5121675;27;20291;-72
2022/01/01 09:32:49;;;;;;;82.10;26.48;;;;;;;3.52;100.00;96184.53;5106153;28;20126;-69
2022/01/01 09:35:18;;;;;;;106.25;32.08;;;;;;;3.70;100.00;96108.03;4970019;28;20144;-69
2022/01/01 09:37:43;;;;;;;108.10;35.80;;;;;;;3.87;100.00;96052.03;5026337;28;20013;-69
2022/01/01 09:40:09;;;;;;;125.68;43.13;;;;;;;4.14;100.00;95990.13;4971439;28;20111;-69
2022/01/01 09:42:36;;;;;;;135.10;48.25;;;;;;;4.24;100.00;95949.94;5059813;28;20021;-69
2022/01/01 09:45:08;;;;;;;115.25;44.75;;;;;;;4.41;100.00;95913.19;5036878;28;20427;-69
2022/01/01 09:47:33;;;;;;;99.70;42.47;;;;;;;4.71;100.00;95881.72;5029274;28;20033;-69
2022/01/01 09:49:59;;;;;;;77.70;34.50;;;;;;;5.07;100.00;95876.69;5029270;28;20329;-69
2022/01/01 09:52:26;;;;;;;65.22;29.95;;;;;;;5.34;100.00;95874.72;5046713;28;20025;-69
2022/01/01 09:54:54;;;;;;;45.95;22.38;;;;;;;5.69;100.00;95875.13;5026370;28;20037;-69
2022/01/01 09:57:22;;;;;;;35.15;19.92;;;;;;;6.07;100.00;95877.72;5045010;28;20029;-69
2022/01/01 09:59:50;;;;;;;37.47;21.42;;;;;;;6.60;100.00;95876.44;5047157;28;20045;-69
2022/01/01 10:02:18;;;;;;;28.38;15.82;;;;;;;7.02;100.00;95885.41;5046665;28;20033;-69
2022/01/01 10:04:50;;;;;;;19.92;11.48;;;;;;;7.34;100.00;95888.72;5045865;28;20029;-69
2022/01/01 10:07:28;;;;;;;18.95;10.27;;;;;;;7.77;100.00;95879.72;5045762;28;20029;-69
2022/01/01 10:09:54;;;;;;;18.10;10.38;;;;;;;8.05;100.00;95871.91;5045523;28;20376;-69
2022/01/01 10:12:19;;;;;;;17.35;9.93;;;;;;;8.27;100.00;95877.50;5045389;28;20025;-69
2022/01/01 10:14:49;;;;;;;16.17;9.55;;;;;;;8.44;100.00;95883.00;5028437;28;20041;-69
2022/01/01 10:17:23;;;;;;;15.13;8.43;;;;;;;8.67;100.00;95874.97;5045479;28;20032;-69
2022/01/01 10:19:51;;;;;;;14.82;9.20;;;;;;;8.74;100.00;95874.06;5025682;28;20041;-69
2022/01/01 10:22:23;;;;;;;12.82;7.45;;;;;;;8.65;100.00;95869.06;5036337;28;20030;-69
2022/01/01 10:27:47;;;;;;;11.50;6.85;;;;;;;8.79;100.00;95853.63;5045618;28;20036;-69
2022/01/01 10:30:19;;;;;;;13.82;8.38;;;;;;;8.91;100.00;95842.91;5046411;28;20499;-69
2022/01/01 10:33:04;;;;;;;10.85;6.95;;;;;;;9.05;100.00;95827.44;5044906;28;20079;-69
2022/01/01 10:35:43;;;;;;;10.32;7.00;;;;;;;9.31;100.00;95810.81;5046425;28;20083;-69
2022/01/01 10:38:13;;;;;;;13.57;7.28;;;;;;;9.66;100.00;95788.44;5046478;28;20083;-69
2022/01/01 10:40:41;;;;;;;11.00;6.68;;;;;;;9.94;100.00;95755.47;5039135;28;20032;-69
2022/01/01 10:43:07;;;;;;;12.20;6.90;;;;;;;10.05;100.00;95712.53;5032711;28;20460;-69
2022/01/01 10:45:40;;;;;;;11.20;7.63;;;;;;;10.17;100.00;95672.28;5031334;28;20025;-69
2022/01/01 10:48:39;;;;;;;11.23;7.85;;;;;;;10.43;100.00;95634.13;5031448;28;20044;-69
2022/01/01 10:51:09;;;;;;;13.15;8.85;;;;;;;10.76;100.00;95600.19;5017214;28;20032;-69
2022/01/01 10:53:39;;;;;;;13.15;7.40;;;;;;;11.05;100.00;95579.25;5025901;28;20021;-69
2022/01/01 10:56:17;;;;;;;10.23;6.20;;;;;;;11.17;100.00;95601.31;4995884;28;20032;-69
2022/01/01 10:58:45;;;;;;;8.32;5.80;;;;;;;11.28;100.00;95645.94;5028055;28;20480;-69
2022/01/01 11:01:11;;;;;;;9.02;5.40;;;;;;;11.41;100.00;95689.50;5031545;28;20029;-69
2022/01/01 11:03:39;;;;;;;8.90;5.82;;;;;;;11.52;100.00;95742.19;5031057;28;20472;-69
2022/01/01 11:06:11;;;;;;;10.68;7.30;;;;;;;11.58;100.00;95758.06;5031225;28;20121;-69
2022/01/01 11:08:41;;;;;;;11.87;8.10;;;;;;;11.31;100.00;95776.06;5031101;28;20026;-69
2022/01/01 11:11:07;;;;;;;15.05;9.38;;;;;;;11.18;100.00;95771.06;5031183;28;20268;-69
2022/01/01 11:13:33;;;;;;;17.48;10.48;;;;;;;11.08;100.00;95784.38;5031759;28;20036;-69
2022/01/01 11:15:59;;;;;;;18.20;11.38;;;;;;;11.30;100.00;95766.38;5031073;28;20025;-69
2022/01/01 11:18:29;;;;;;;18.45;12.15;;;;;;;11.51;100.00;95778.94;5032198;28;20554;-69
2022/01/01 11:20:56;;;;;;;18.55;12.55;;;;;;;11.67;100.00;95787.94;5032231;28;20036;-69
2022/01/01 11:23:22;;;;;;;18.35;12.40;;;;;;;11.89;100.00;95817.41;5030565;28;20029;-69
2022/01/01 11:25:51;;;;;;;20.08;13.05;;;;;;;12.01;100.00;95836.84;5030854;28;20038;-70
2022/01/01 11:28:18;;;;;;;19.67;12.43;;;;;;;12.06;100.00;95863.78;5030794;28;20038;-70
2022/01/01 11:30:57;;;;;;;10.25;7.47;;;;;;;11.73;100.00;95926.50;5032251;28;20025;-69
2022/01/01 11:33:32;;;;;;;14.43;9.40;;;;;;;11.67;100.00;95967.72;5030419;28;20100;-69
2022/01/01 11:35:59;;;;;;;13.45;8.45;;;;;;;11.64;100.00;95988.91;5031828;28;20116;-69
2022/01/01 11:38:31;;;;;;;14.32;10.40;;;;;;;11.60;100.00;96015.41;5011028;28;20101;-70
2022/01/01 11:41:03;;;;;;;15.43;10.57;;;;;;;11.61;100.00;96020.53;5028436;28;20032;-69
2022/01/01 11:43:42;;;;;;;18.15;12.52;;;;;;;11.48;100.00;96017.38;5030089;28;20052;-69
2022/01/01 11:46:15;;;;;;;14.45;10.48;;;;;;;11.64;100.00;96024.59;5017040;28;20055;-69
2022/01/01 11:48:43;;;;;;;14.80;10.38;;;;;;;11.82;100.00;96048.47;5011818;28;20022;-70
2022/01/01 11:51:35;;;;;;;13.60;9.63;;;;;;;11.88;100.00;96068.13;5031446;28;20025;-70
2022/01/01 11:54:12;;;;;;;12.68;9.20;;;;;;;12.03;100.00;96072.88;5029609;28;20029;-70
2022/01/01 11:56:46;;;;;;;16.23;9.02;;;;;;;12.27;100.00;96092.28;5031670;28;20484;-70
2022/01/01 11:59:36;;;;;;;11.77;8.73;;;;;;;12.39;100.00;96141.31;5030432;28;20432;-70
2022/01/01 12:02:10;;;;;;;11.95;8.82;;;;;;;12.24;100.00;96163.41;5031240;28;20096;-70
2022/01/01 12:04:45;;;;;;;11.90;8.60;;;;;;;12.29;100.00;96170.72;5031648;28;20064;-70
2022/01/01 12:07:28;;;;;;;13.35;10.10;;;;;;;12.37;100.00;96168.44;5031529;28;20037;-70
2022/01/01 12:10:11;;;;;;;;;;;;;;;-144.43;100.00;64487.81;5030853;28;20029;-70
2022/01/01 12:12:42;;;;;;;15.18;10.43;;;;;;;-144.43;100.00;64487.81;5033502;28;19920;-70
2022/01/01 12:15:28;;;;;;;17.85;11.18;;;;;;;-144.43;100.00;64487.81;5032623;28;20415;-70
2022/01/01 12:18:01;;;;;;;15.63;11.23;;;;;;;-144.43;100.00;64487.81;5031412;28;20067;-70
2022/01/01 12:20:27;;;;;;;18.55;11.98;;;;;;;-144.43;100.00;64487.81;5031404;28;20384;-70
2022/01/01 12:22:52;;;;;;;14.93;10.63;;;;;;;12.51;100.00;96214.53;5029461;28;20025;-70
2022/01/01 12:25:23;;;;;;;16.42;11.32;;;;;;;12.66;100.00;96212.03;5030224;28;20029;-70
2022/01/01 12:27:51;;;;;;;17.08;11.95;;;;;;;12.59;100.00;96214.13;4975375;28;20041;-70
2022/01/01 12:30:37;;;;;;;17.88;11.80;;;;;;;12.33;100.00;96214.84;5025476;28;20049;-70
2022/01/01 12:33:05;;;;;;;17.15;12.52;;;;;;;12.40;100.00;96189.41;5009623;28;20542;-70
2022/01/01 12:35:44;;;;;;;16.17;12.60;;;;;;;12.56;100.00;96198.47;5018483;23;20574;-65
2022/01/01 12:38:21;;;;;;;17.85;12.50;;;;;;;12.56;100.00;96195.78;4988924;28;20061;-65
2022/01/01 12:41:15;;;;;;;20.17;13.43;;;;;;;12.63;100.00;96204.47;5008226;28;20208;-66
2022/01/01 12:43:43;;;;;;;18.33;13.48;;;;;;;12.78;100.00;96201.16;5004586;28;20540;-65
2022/01/01 12:46:09;;;;;;;17.98;12.52;;;;;;;12.68;100.00;96199.16;4990068;28;20030;-64
2022/01/01 12:48:36;;;;;;;17.40;12.98;;;;;;;12.68;100.00;96179.53;4973684;28;20543;-64
2022/01/01 12:51:05;;;;;;;20.13;13.40;;;;;;;12.77;100.00;96168.09;4989970;28;20117;-65
2022/01/01 12:53:33;;;;;;;17.58;13.05;;;;;;;12.91;100.00;96179.25;5007513;28;20029;-65
2022/01/01 12:56:04;;;;;;;17.58;12.57;;;;;;;12.84;100.00;96184.03;5009537;28;20034;-66
2022/01/01 12:58:41;;;;;;;17.65;12.23;;;;;;;13.00;100.00;96185.00;5010659;28;20025;-65
2022/01/01 13:01:09;;;;;;;17.38;13.10;;;;;;;13.18;100.00;96181.16;5010690;28;20384;-65
2022/01/01 13:03:34;;;;;;;18.05;12.57;;;;;;;13.34;100.00;96182.94;5009328;28;20424;-65
2022/01/01 13:06:00;;;;;;;19.05;13.65;;;;;;;13.44;100.00;96176.84;5010297;28;20032;-65
2022/01/01 13:08:25;;;;;;;18.15;12.85;;;;;;;13.29;100.00;96182.91;5010724;28;20572;-66
2022/01/01 13:10:51;;;;;;;18.65;13.27;;;;;;;13.25;100.00;96179.13;4995410;28;20034;-64
2022/01/01 13:13:18;;;;;;;18.05;12.88;;;;;;;13.25;100.00;96179.94;4989793;28;20133;-67
2022/01/01 13:15:44;;;;;;;17.92;13.25;;;;;;;13.27;100.00;96175.09;4990747;28;20093;-64
2022/01/01 13:18:09;;;;;;;19.52;13.35;;;;;;;13.38;100.00;96172.50;4989600;28;20034;-67
2022/01/01 13:20:37;;;;;;;18.38;13.63;;;;;;;13.41;100.00;96153.94;4990722;28;20030;-66
2022/01/01 13:23:08;;;;;;;19.27;14.35;;;;;;;13.23;100.00;96149.75;4990709;28;20031;-66
2022/01/01 13:25:33;;;;;;;18.75;14.57;;;;;;;13.21;100.00;96138.44;4989445;28;20393;-66
2022/01/01 13:27:58;;;;;;;19.00;14.88;;;;;;;13.16;100.00;96116.84;4989710;28;20018;-65
2022/01/01 13:30:25;;;;;;;25.83;15.77;;;;;;;13.12;100.00;96104.97;4962008;28;20382;-65
2022/01/01 13:32:51;;;;;;;22.45;16.80;;;;;;;12.93;100.00;96083.03;4924237;28;20082;-65
2022/01/01 13:35:27;;;;;;;21.88;16.83;;;;;;;12.86;100.00;96073.53;5000140;28;20141;-66
2022/01/01 13:37:54;;;;;;;23.05;16.77;;;;;;;12.74;100.00;96062.94;5009465;28;20034;-65
2022/01/01 13:40:19;;;;;;;23.17;16.30;;;;;;;12.73;100.00;96046.00;5003721;28;20120;-65
2022/01/01 13:42:47;;;;;;;19.92;15.25;;;;;;;12.74;100.00;96039.56;5005133;28;20108;-64
2022/01/01 13:45:12;;;;;;;20.60;15.23;;;;;;;12.72;100.00;96044.38;4991714;28;20048;-65
2022/01/01 13:47:40;;;;;;;20.30;15.02;;;;;;;12.71;100.00;96037.38;4999937;28;20022;-67
2022/01/01 13:50:14;;;;;;;21.10;15.35;;;;;;;12.77;100.00;96016.72;4990692;28;20022;-65
2022/01/01 13:52:41;;;;;;;21.55;15.05;;;;;;;12.82;100.00;96019.47;4989649;28;20367;-65
2022/01/01 13:55:07;;;;;;;19.75;14.68;;;;;;;12.96;100.00;96019.84;4995313;28;20113;-65
2022/01/01 13:57:37;;;;;;;18.70;13.43;;;;;;;13.06;100.00;96019.94;5000701;28;20034;-66
2022/01/01 14:00:03;;;;;;;17.17;12.45;;;;;;;13.17;100.00;96039.66;5003181;28;20031;-66
2022/01/01 14:02:30;;;;;;;17.95;12.38;;;;;;;13.22;100.00;96019.00;4973434;28;20054;-65
2022/01/01 14:05:00;;;;;;;18.58;12.63;;;;;;;13.27;100.00;96018.22;4989252;28;20022;-65
2022/01/01 14:07:25;;;;;;;17.73;11.80;;;;;;;13.26;100.00;96019.31;4989377;28;20481;-65
2022/01/01 14:09:58;;;;;;;16.77;11.85;;;;;;;13.24;100.00;96022.25;4994665;28;20017;-66
2022/01/01 14:12:28;;;;;;;15.52;11.95;;;;;;;13.27;100.00;96031.69;4995173;28;20036;-66
2022/01/01 14:15:06;;;;;;;18.80;14.18;;;;;;;13.20;100.00;96020.31;4990536;28;20385;-66
2022/01/01 14:17:57;;;;;;;21.63;14.98;;;;;;;13.21;100.00;95993.16;4993894;28;20035;-65
2022/01/01 14:20:33;;;;;;;21.55;15.38;;;;;;;13.21;100.00;95995.03;4993043;28;20493;-65
2022/01/01 14:23:02;;;;;;;24.88;16.08;;;;;;;13.15;100.00;95999.56;4993762;28;20030;-66
2022/01/01 14:25:32;;;;;;;27.00;18.98;;;;;;;13.08;100.00;95990.91;4994266;28;20508;-66
2022/01/01 14:28:06;;;;;;;27.23;20.90;;;;;;;12.99;100.00;95995.13;4997416;28;20034;-66
2022/01/01 14:30:32;;;;;;;29.25;21.05;;;;;;;12.87;100.00;95971.09;5002789;28;20062;-66
2022/01/01 14:32:59;;;;;;;26.88;19.17;;;;;;;12.76;100.00;95964.84;5007516;28;20026;-65
2022/01/01 14:35:29;;;;;;;27.58;19.52;;;;;;;12.66;100.00;95950.50;4969534;28;20057;-66
2022/01/01 14:37:55;;;;;;;28.52;20.05;;;;;;;12.55;100.00;95946.09;5008092;28;20047;-65
2022/01/01 14:40:20;;;;;;;25.60;19.02;;;;;;;12.44;100.00;95927.22;5009774;28;20030;-65
2022/01/01 14:42:46;;;;;;;32.13;20.33;;;;;;;12.36;100.00;95927.66;5008690;28;20072;-65
2022/01/01 14:45:11;;;;;;;28.63;21.83;;;;;;;12.29;100.00;95912.84;5010228;28;20068;-66
2022/01/01 14:48:00;;;;;;;26.20;19.40;;;;;;;12.24;100.00;95915.47;5008770;28;20544;-67
2022/01/01 14:50:32;;;;;;;28.30;20.08;;;;;;;12.16;100.00;95917.56;5008566;28;20033;-65
2022/01/01 14:53:34;;;;;;;26.67;19.35;;;;;;;11.98;100.00;95907.19;5010373;28;20468;-67
2022/01/01 14:56:19;;;;;;;24.95;18.40;;;;;;;11.80;100.00;95907.50;5011219;28;20396;-66
2022/01/01 14:58:55;;;;;;;27.30;17.95;;;;;;;11.60;100.00;95894.66;5010524;28;20425;-67
2022/01/01 15:01:20;;;;;;;28.88;20.17;;;;;;;11.43;100.00;95888.56;5012374;28;20024;-67
2022/01/01 15:03:45;;;;;;;30.98;19.60;;;;;;;11.34;100.00;95869.41;5010548;28;20399;-66
2022/01/01 15:06:11;;;;;;;24.42;18.30;;;;;;;11.19;100.00;95859.31;5010989;28;20038;-66
2022/01/01 15:08:42;;;;;;;27.60;19.20;;;;;;;11.01;100.00;95856.94;5009845;28;20113;-66
2022/01/01 15:11:09;;;;;;;26.17;18.20;;;;;;;10.76;100.00;95838.66;5010784;28;20110;-66
2022/01/01 15:13:36;;;;;;;27.25;18.27;;;;;;;10.50;100.00;95828.63;5019542;28;20087;-66
2022/01/01 15:16:02;;;;;;;28.05;19.40;;;;;;;10.16;100.00;95808.00;5020472;28;20486;-66
2022/01/01 15:18:29;;;;;;;25.05;18.20;;;;;;;9.90;100.00;95776.56;5012160;28;20065;-64
2022/01/01 15:21:02;;;;;;;25.90;18.90;;;;;;;9.68;100.00;95775.66;5016695;28;20515;-66
2022/01/01 15:23:55;;;;;;;26.30;18.85;;;;;;;9.41;100.00;95770.91;5018913;28;20037;-66
2022/01/01 15:26:22;;;;;;;25.40;17.90;;;;;;;9.08;100.00;95749.44;4997241;28;20022;-66
2022/01/01 15:28:52;;;;;;;28.17;18.48;;;;;;;8.82;100.00;95745.50;4992589;28;20030;-66
2022/01/01 15:31:27;;;;;;;27.83;18.58;;;;;;;8.53;100.00;95728.59;4992515;28;20106;-67
2022/01/01 15:33:56;;;;;;;25.35;18.02;;;;;;;8.29;100.00;95717.13;4993565;28;20410;-66
2022/01/01 15:36:28;;;;;;;21.80;16.10;;;;;;;8.01;100.00;95708.00;4993385;28;20042;-66
2022/01/01 15:39:02;;;;;;;22.50;17.30;;;;;;;7.75;100.00;95709.28;5005960;28;20424;-67
2022/01/01 15:41:39;;;;;;;24.02;17.30;;;;;;;7.50;100.00;95704.16;4993481;28;20092;-65
2022/01/01 15:44:05;;;;;;;26.63;17.67;;;;;;;7.26;100.00;95705.97;4993286;28;20057;-67
2022/01/01 15:46:32;;;;;;;26.77;17.98;;;;;;;7.09;100.00;95712.19;4993084;28;20620;-65
2022/01/01 15:48:58;;;;;;;24.38;17.52;;;;;;;6.95;100.00;95714.25;4993207;28;20030;-66
2022/01/01 15:51:24;;;;;;;24.25;16.80;;;;;;;6.77;100.00;95717.75;4992251;28;20805;-66
2022/01/01 15:53:54;;;;;;;21.08;14.98;;;;;;;6.61;100.00;95727.16;4993191;28;20031;-66
2022/01/01 15:56:22;;;;;;;20.13;13.98;;;;;;;6.45;100.00;95730.44;4993203;28;20072;-66
2022/01/01 15:58:56;;;;;;;19.80;13.18;;;;;;;6.36;100.00;95734.44;4993197;28;20061;-66
2022/01/01 16:01:28;;;;;;;19.05;13.63;;;;;;;6.27;100.00;95749.88;4993214;28;20101;-66
2022/01/01 16:04:31;;;;;;;19.92;13.55;;;;;;;6.17;100.00;95770.84;4991996;28;20442;-66
2022/01/01 16:07:04;;;;;;;20.37;13.43;;;;;;;5.97;100.00;95778.19;4993326;28;20049;-66
2022/01/01 16:09:41;;;;;;;22.13;14.02;;;;;;;5.79;100.00;95782.44;4993130;28;20029;-66
2022/01/01 16:12:08;;;;;;;19.48;14.35;;;;;;;5.66;100.00;95790.53;4993095;28;20377;-66
2022/01/01 16:14:36;;;;;;;20.05;14.50;;;;;;;5.52;100.00;95792.44;4992969;28;20030;-66
2022/01/01 16:17:04;;;;;;;22.27;15.40;;;;;;;5.42;100.00;95796.59;4991849;28;20065;-66
2022/01/01 16:19:30;;;;;;;22.90;15.65;;;;;;;5.33;100.00;95812.00;4998222;28;20022;-66
2022/01/01 16:21:57;;;;;;;22.10;15.80;;;;;;;5.23;100.00;95817.78;5012411;28;20029;-66
2022/01/01 16:24:27;;;;;;;23.98;16.63;;;;;;;5.13;100.00;95822.75;4995010;28;20030;-66
2022/01/01 16:26:53;;;;;;;23.65;15.63;;;;;;;5.01;100.00;95831.59;4997704;28;20030;-66
2022/01/01 16:29:19;;;;;;;27.33;17.33;;;;;;;4.90;100.00;95839.19;5013116;28;20425;-66
2022/01/01 16:31:45;;;;;;;24.27;16.77;;;;;;;4.85;100.00;95843.50;5018009;28;20064;-65
2022/01/01 16:34:17;;;;;;;28.13;15.85;;;;;;;4.76;100.00;95842.91;5017166;28;20022;-66
2022/01/01 16:36:42;;;;;;;24.65;17.10;;;;;;;4.68;100.00;95855.63;5017172;28;20045;-66
2022/01/01 16:39:08;;;;;;;26.30;16.67;;;;;;;4.57;100.00;95873.00;5023778;28;20074;-66
2022/01/01 16:41:36;;;;;;;27.25;18.15;;;;;;;4.48;100.00;95885.66;5011491;28;20036;-66
2022/01/01 16:44:34;;;;;;;26.02;17.15;;;;;;;4.35;100.00;95885.69;5006356;28;20057;-66
2022/01/01 16:47:08;;;;;;;29.27;18.52;;;;;;;4.26;100.00;95890.38;5002671;28;20064;-67
2022/01/01 16:49:39;;;;;;;28.25;17.33;;;;;;;4.24;100.00;95900.38;5010851;28;20053;-66
2022/01/01 16:52:19;;;;;;;28.55;18.45;;;;;;;4.19;100.00;95902.81;5010627;28;20132;-66
2022/01/01 16:54:45;;;;;;;25.70;18.05;;;;;;;4.14;100.00;95910.56;4998203;28;20092;-66
2022/01/01 16:57:12;;;;;;;29.73;18.80;;;;;;;4.03;100.00;95911.19;5004839;28;20033;-66
2022/01/01 16:59:39;;;;;;;29.63;19.02;;;;;;;3.90;100.00;95913.81;4998293;28;20034;-66
2022/01/01 17:02:11;;;;;;;30.20;19.63;;;;;;;3.74;100.00;95912.38;5001764;28;20042;-66
2022/01/01 17:04:52;;;;;;;27.00;17.15;;;;;;;3.58;100.00;95905.63;4995700;28;20462;-66
2022/01/01 17:07:18;;;;;;;29.33;18.85;;;;;;;3.47;100.00;95912.34;4997163;28;20069;-66
2022/01/01 17:09:44;;;;;;;27.52;17.98;;;;;;;3.46;100.00;95915.16;5004838;28;20053;-66
2022/01/01 17:12:12;;;;;;;31.70;20.17;;;;;;;3.46;100.00;95902.72;5009738;28;20022;-66
2022/01/01 17:14:37;;;;;;;30.10;18.27;;;;;;;3.47;100.00;95896.44;5010765;28;20054;-66
2022/01/01 17:17:29;;;;;;;31.67;20.42;;;;;;;3.49;100.00;95888.31;5010396;28;20025;-66
2022/01/01 17:20:02;;;;;;;29.73;18.83;;;;;;;3.44;100.00;95878.28;5006141;28;20033;-65
2022/01/01 17:22:40;;;;;;;31.73;19.60;;;;;;;3.32;100.00;95879.91;5015116;28;20026;-66
2022/01/01 17:25:09;;;;;;;30.95;18.63;;;;;;;3.22;100.00;95876.81;5005155;28;20060;-66
2022/01/01 17:27:47;;;;;;;31.02;19.23;;;;;;;3.20;100.00;95861.13;5005220;28;20030;-66
2022/01/01 17:30:18;;;;;;;33.90;20.25;;;;;;;3.19;100.00;95862.16;5002056;28;20022;-66
2022/01/01 17:33:00;;;;;;;33.17;19.23;;;;;;;3.11;100.00;95843.78;5003091;28;20038;-66
2022/01/01 17:36:04;;;;;;;32.33;18.90;;;;;;;3.03;100.00;95836.03;5006510;28;20065;-66
2022/01/01 17:41:03;;;;;;;29.98;18.90;;;;;;;2.87;100.00;95823.16;5008106;28;20025;-66
2022/01/01 17:43:33;;;;;;;30.08;18.25;;;;;;;2.79;100.00;95829.44;4998681;28;20053;-65
2022/01/01 17:45:59;;;;;;;30.85;17.83;;;;;;;2.69;100.00;95814.94;4996956;28;20488;-66
2022/01/01 17:48:44;;;;;;;28.50;18.33;;;;;;;2.54;100.00;95813.28;5000372;28;20030;-66
2022/01/01 17:51:13;;;;;;;25.65;16.45;;;;;;;2.48;100.00;95806.13;5013295;28;20026;-66
2022/01/01 17:53:44;;;;;;;29.27;17.88;;;;;;;2.51;100.00;95804.94;5014720;28;20380;-66
2022/01/01 17:56:11;;;;;;;43.17;19.25;;;;;;;2.49;100.00;95804.28;5012959;28;20112;-66
2022/01/01 17:58:42;;;;;;;30.95;18.17;;;;;;;2.43;100.00;95803.25;5014697;28;20392;-65
2022/01/01 18:01:20;;;;;;;33.50;19.08;;;;;;;2.37;100.00;95804.03;5012433;28;20128;-65
2022/01/01 18:03:48;;;;;;;32.13;18.55;;;;;;;2.34;100.00;95796.50;5002349;28;20113;-66
2022/01/01 18:06:19;;;;;;;33.40;18.48;;;;;;;2.33;100.00;95785.09;4994508;28;20034;-66
2022/01/01 18:08:56;;;;;;;30.85;18.40;;;;;;;2.30;100.00;95780.22;4994575;28;20054;-65
2022/01/01 18:11:22;;;;;;;31.10;17.20;;;;;;;2.22;100.00;95775.09;4995536;28;20033;-66
2022/01/01 18:13:54;;;;;;;29.92;18.27;;;;;;;2.19;100.00;95769.41;4995580;28;20027;-65
2022/01/01 18:16:20;;;;;;;31.83;18.05;;;;;;;2.16;100.00;95765.28;4994032;28;20501;-65
2022/01/01 18:18:57;;;;;;;27.83;16.75;;;;;;;2.13;100.00;95760.41;4995385;28;20062;-65
2022/01/01 18:21:23;;;;;;;26.40;16.98;;;;;;;2.12;100.00;95747.38;4995341;28;20034;-66
2022/01/01 18:24:07;;;;;;;28.90;17.05;;;;;;;2.11;100.00;95746.56;4995316;28;20485;-65
2022/01/01 18:26:52;;;;;;;25.52;16.10;;;;;;;2.07;100.00;95733.97;4995330;28;20033;-65
2022/01/01 18:29:21;;;;;;;27.08;15.93;;;;;;;2.04;100.00;95724.56;4994053;28;20030;-65
2022/01/01 18:31:47;;;;;;;27.90;16.40;;;;;;;2.02;100.00;95727.41;4983490;28;20034;-66
2022/01/01 18:34:13;;;;;;;30.20;16.92;;;;;;;2.01;100.00;95715.22;4994985;28;20424;-65
2022/01/01 18:36:43;;;;;;;25.60;16.58;;;;;;;1.97;100.00;95713.19;5005439;23;20051;-70
2022/01/01 18:39:09;;;;;;;26.85;17.02;;;;;;;1.92;100.00;95713.75;4985611;28;20101;-70
2022/01/01 18:41:37;;;;;;;26.77;15.95;;;;;;;1.89;100.00;95706.22;4974354;28;20470;-69
2022/01/01 18:44:09;;;;;;;26.08;16.20;;;;;;;1.86;100.00;95706.63;4974685;28;20465;-69
2022/01/01 18:46:38;;;;;;;26.35;15.52;;;;;;;1.83;100.00;95698.25;4975461;28;20027;-70
2022/01/01 18:49:08;;;;;;;22.83;14.75;;;;;;;1.81;100.00;95692.34;4974301;28;20023;-69
2022/01/01 18:51:39;;;;;;;27.65;15.50;;;;;;;1.74;100.00;95684.41;4975537;28;20026;-70
2022/01/01 18:54:07;;;;;;;24.20;14.82;;;;;;;1.68;100.00;95674.63;4974211;28;20031;-70
2022/01/01 18:56:48;;;;;;;25.73;14.88;;;;;;;1.66;100.00;95674.00;4975721;28;20478;-69
2022/01/01 18:59:26;;;;;;;22.83;13.20;;;;;;;1.67;100.00;95663.25;4975546;28;20034;-70
2022/01/01 19:01:54;;;;;;;23.80;14.32;;;;;;;1.67;100.00;95660.59;4973224;28;20023;-70
2022/01/01 19:04:27;;;;;;;23.77;13.85;;;;;;;1.68;100.00;95648.22;4974043;28;20027;-69
2022/01/01 19:06:54;;;;;;;21.75;13.63;;;;;;;1.64;100.00;95642.53;4973991;28;20386;-70
2022/01/01 19:09:41;;;;;;;23.33;13.95;;;;;;;1.56;100.00;95637.41;4974125;28;20038;-69
2022/01/01 19:12:20;;;;;;;20.80;13.18;;;;;;;1.47;100.00;95632.47;4974215;28;20023;-70
2022/01/01 19:14:54;;;;;;;20.73;12.90;;;;;;;1.37;100.00;95615.16;4974029;28;20076;-69
2022/01/01 19:17:21;;;;;;;21.48;12.57;;;;;;;1.31;100.00;95623.03;4975039;28;20037;-69
2022/01/01 19:19:51;;;;;;;19.13;11.98;;;;;;;1.28;100.00;95621.59;4974865;28;20398;-70
2022/01/01 19:22:24;;;;;;;21.40;13.38;;;;;;;1.23;100.00;95618.72;4974731;28;20482;-69
2022/01/01 19:24:50;;;;;;;22.92;12.80;;;;;;;1.21;100.00;95622.56;4973549;28;20074;-69
2022/01/01 19:27:24;;;;;;;22.02;13.65;;;;;;;1.19;100.00;95625.38;4973349;28;20121;-69
2022/01/01 19:29:51;;;;;;;22.95;12.90;;;;;;;1.22;100.00;95614.47;4974894;28;20027;-69
2022/01/01 19:32:20;;;;;;;22.02;12.57;;;;;;;1.29;100.00;95612.66;4981426;28;20034;-69
2022/01/01 19:34:48;;;;;;;22.58;12.55;;;;;;;1.28;100.00;95610.22;4973178;28;20393;-69
2022/01/01 19:37:23;;;;;;;21.48;13.05;;;;;;;1.20;100.00;95605.13;4980671;28;20085;-69
2022/01/01 19:39:55;;;;;;;20.92;12.85;;;;;;;1.14;100.00;95601.41;4978790;28;20058;-69
2022/01/01 19:42:49;;;;;;;21.58;12.75;;;;;;;1.12;100.00;95598.16;4973387;28;20117;-69
2022/01/01 19:45:24;;;;;;;24.77;12.95;;;;;;;1.12;100.00;95595.53;4972905;28;20030;-69
2022/01/01 19:47:52;;;;;;;21.38;12.48;;;;;;;1.10;100.00;95602.81;4973234;28;20031;-69
2022/01/01 19:50:18;;;;;;;23.70;13.50;;;;;;;1.05;100.00;95592.81;4974556;28;20027;-69
2022/01/01 19:52:43;;;;;;;23.63;13.88;;;;;;;1.01;100.00;95591.59;4974498;28;20375;-69
2022/01/01 19:55:10;;;;;;;22.38;13.55;;;;;;;0.96;100.00;95585.25;4974056;28;20114;-70
2022/01/01 19:57:37;;;;;;;27.95;15.05;;;;;;;0.96;100.00;95585.25;4974255;28;20031;-71
2022/01/01 20:00:09;;;;;;;24.58;14.25;;;;;;;0.92;100.00;95576.91;4972738;28;20081;-69
2022/01/01 20:02:35;;;;;;;24.73;13.73;;;;;;;0.93;100.00;95572.47;4987121;28;20030;-70
2022/01/01 20:05:11;;;;;;;23.92;14.35;;;;;;;0.94;100.00;95574.91;4993388;28;20034;-69
2022/01/01 20:07:38;;;;;;;25.23;14.52;;;;;;;0.91;100.00;95567.38;4993448;28;20214;-70
2022/01/01 20:10:07;;;;;;;24.30;13.98;;;;;;;0.83;100.00;95562.25;4993347;28;20018;-69
2022/01/01 20:12:36;;;;;;;23.98;14.60;;;;;;;0.74;100.00;95550.22;4993033;28;20022;-69
2022/01/01 20:15:08;;;;;;;21.90;13.13;;;;;;;0.67;100.00;95549.38;4991679;28;20084;-69
2022/01/01 20:17:34;;;;;;;25.90;14.55;;;;;;;0.71;100.00;95550.59;4992164;28;20030;-70
2022/01/01 20:20:04;;;;;;;22.33;13.40;;;;;;;0.72;100.00;95547.78;4992113;28;20094;-69
2022/01/01 20:22:34;;;;;;;24.05;14.80;;;;;;;0.69;100.00;95536.81;4991986;28;20046;-69
2022/01/01 20:24:59;;;;;;;26.75;15.00;;;;;;;0.65;100.00;95535.53;4991757;28;20113;-70
2022/01/01 20:27:33;;;;;;;25.77;14.70;;;;;;;0.62;100.00;95531.47;4991711;28;20148;-69
2022/01/01 20:30:00;;;;;;;26.85;15.38;;;;;;;0.66;100.00;95526.66;4993174;28;20018;-69
2022/01/01 20:32:26;;;;;;;26.05;15.77;;;;;;;0.68;100.00;95527.28;4991192;28;20034;-69
2022/01/01 20:34:52;;;;;;;26.05;15.23;;;;;;;0.68;100.00;95522.81;4991792;28;20030;-69
2022/01/01 20:37:18;;;;;;;27.83;16.02;;;;;;;0.67;100.00;95526.47;4990907;28;20590;-70
2022/01/01 20:39:44;;;;;;;28.80;15.48;;;;;;;0.71;100.00;95532.97;4979552;28;20026;-69
2022/01/01 20:42:12;;;;;;;27.63;16.05;;;;;;;0.72;100.00;95537.22;4973498;28;20066;-69
2022/01/01 20:44:39;;;;;;;27.45;15.73;;;;;;;0.74;100.00;95537.03;4973549;28;20520;-71
2022/01/01 20:47:05;;;;;;;27.30;16.02;;;;;;;0.73;100.00;95540.69;4980270;28;20477;-69
2022/01/01 20:49:35;;;;;;;32.25;18.75;;;;;;;0.70;100.00;95528.69;4991460;28;20057;-69
2022/01/01 20:52:06;;;;;;;29.17;17.55;;;;;;;0.61;100.00;95519.31;4991292;28;20030;-69
2022/01/01 20:54:32;;;;;;;29.33;17.67;;;;;;;0.51;100.00;95514.38;4991398;28;20026;-69
2022/01/01 20:57:00;;;;;;;32.63;18.30;;;;;;;0.50;100.00;95518.00;4990994;28;20034;-69
2022/01/01 20:59:26;;;;;;;30.25;17.02;;;;;;;0.48;100.00;95508.69;4992096;28;20018;-69
2022/01/01 21:01:58;;;;;;;33.42;18.77;;;;;;;0.48;100.00;95504.22;4982376;28;20034;-71
2022/01/01 21:04:25;;;;;;;33.90;19.13;;;;;;;0.60;100.00;95496.59;4973563;28;20035;-69
2022/01/01 21:06:51;;;;;;;34.42;20.60;;;;;;;0.74;100.00;95489.56;4971621;28;20033;-71